Aérodrome :
LOGIN :

S'inscrire | Disclaimer

   EN    FR    IT 

 










Légende :    VFR   VFR Marginal   IFR   IFR Intensif   IFR Très Intensif
Visi : 
Plafond : 
>= 8 km
>= 3000ft
5 à 8 km
1000 à 3000 ft
1500m à 5 km
500 à 1000 ft
800 à 1500m
200 à 500 ft
< 800m
< 200 ft
Symboles :   Orages  Brouillard  Fortes neiges  Fortes précipitations  Vent > 20 kt
SIGMETs :   Divers  Orages  Givrage  Turbulence  Onde Orograph.  Cendres Volcan.







- Altitude de l'aérodrome : 1043 ft
- Code IATA : SLD


LZSL - Sliac

DERNIER METAR :
  • 190100Z 25001KT 6000 FEW050 BKN075 01/00 Q1016

METARs EXPIRÉS :
  • 190030Z 00000KT 6000 FEW045 OVC070 01/00 Q1016
  • 190000Z 00000KT 8000 BKN050 OVC070 01/00 Q1016
  • 182330Z 04001KT 7000 OVC048 02/01 Q1017
  • 182300Z 00000KT 6000 -RA OVC043 02/00 Q1017
  • 182230Z 00000KT 8000 -RA OVC042 02/01 Q1017

TAF TAF LZSL
Valide du 19 à 00h jusqu'au 19 à 09h UTC


182300Z 1900/1909 VRB02KT 8000 -RA OVC040
PROB30
TEMPO 1900/1902 00000KT 5000 RASN SCT012 OVC025
BECMG 1902/1904 34004KT 9999 SCT042 BKN060
Pas de NOTAMs connus pour ce terrain.



MET'MAP, la Météo Aéronautique d'un coup d'oeil ! - Copyright ORBIFLY Décembre 2007 - Disclaimer

ORBIFLY MET'MAP TEAM :

Programmation & Développement : Alexandra Zaïnal
Conception & Développement : Baudouin d'Aumeries
Co-Programmation & Développement : Marc-Olivier Méhu
Soutien technique & logistique : Manuel Goepfert

Contact : metmap@orbifly.com




SOURCES & CREDITS :

   NOAA